sensor_id;sensor_type;location;lat;lon;timestamp;P1;durP1;ratioP1;P2;durP2;ratioP2
29200;SDS011;16244;51.956;12.980;2023-05-02T00:01:39;10.77;;;3.63;;
29200;SDS011;16244;51.956;12.980;2023-05-02T00:04:07;3.77;;;3.47;;
29200;SDS011;16244;51.956;12.980;2023-05-02T00:06:34;4.30;;;3.40;;
29200;SDS011;16244;51.956;12.980;2023-05-02T00:09:07;3.30;;;3.20;;
29200;SDS011;16244;51.956;12.980;2023-05-02T00:11:34;4.70;;;4.30;;
29200;SDS011;16244;51.956;12.980;2023-05-02T00:14:02;3.33;;;3.20;;
29200;SDS011;16244;51.956;12.980;2023-05-02T00:16:30;3.70;;;3.53;;
29200;SDS011;16244;51.956;12.980;2023-05-02T00:18:58;5.33;;;4.20;;
29200;SDS011;16244;51.956;12.980;2023-05-02T00:21:26;4.00;;;3.70;;
29200;SDS011;16244;51.956;12.980;2023-05-02T00:23:54;4.90;;;4.50;;
29200;SDS011;16244;51.956;12.980;2023-05-02T00:26:22;8.17;;;3.40;;
29200;SDS011;16244;51.956;12.980;2023-05-02T00:28:49;6.43;;;3.33;;
29200;SDS011;16244;51.956;12.980;2023-05-02T00:31:17;4.93;;;3.67;;
29200;SDS011;16244;51.956;12.980;2023-05-02T00:33:46;4.33;;;3.93;;
29200;SDS011;16244;51.956;12.980;2023-05-02T00:36:13;4.27;;;3.90;;
29200;SDS011;16244;51.956;12.980;2023-05-02T00:38:41;4.90;;;4.47;;
29200;SDS011;16244;51.956;12.980;2023-05-02T00:41:10;4.70;;;3.97;;
29200;SDS011;16244;51.956;12.980;2023-05-02T00:43:37;7.03;;;3.97;;
29200;SDS011;16244;51.956;12.980;2023-05-02T00:46:05;4.40;;;4.00;;
29200;SDS011;16244;51.956;12.980;2023-05-02T00:48:33;4.23;;;3.20;;
29200;SDS011;16244;51.956;12.980;2023-05-02T00:51:03;5.03;;;4.17;;
29200;SDS011;16244;51.956;12.980;2023-05-02T00:53:31;4.73;;;4.20;;
29200;SDS011;16244;51.956;12.980;2023-05-02T00:55:58;6.73;;;4.60;;
29200;SDS011;16244;51.956;12.980;2023-05-02T00:58:27;5.27;;;4.60;;
29200;SDS011;16244;51.956;12.980;2023-05-02T01:00:58;5.27;;;4.77;;
29200;SDS011;16244;51.956;12.980;2023-05-02T01:03:35;7.60;;;5.57;;
29200;SDS011;16244;51.956;12.980;2023-05-02T01:06:14;5.30;;;5.10;;
29200;SDS011;16244;51.956;12.980;2023-05-02T01:08:49;5.07;;;4.80;;
29200;SDS011;16244;51.956;12.980;2023-05-02T01:11:27;6.30;;;5.70;;
29200;SDS011;16244;51.956;12.980;2023-05-02T01:14:01;5.83;;;5.10;;
29200;SDS011;16244;51.956;12.980;2023-05-02T01:16:34;7.33;;;5.43;;
29200;SDS011;16244;51.956;12.980;2023-05-02T01:19:08;4.83;;;4.53;;
29200;SDS011;16244;51.956;12.980;2023-05-02T01:21:47;7.50;;;5.83;;
29200;SDS011;16244;51.956;12.980;2023-05-02T01:24:18;8.83;;;5.53;;
29200;SDS011;16244;51.956;12.980;2023-05-02T01:26:51;10.43;;;5.17;;
29200;SDS011;16244;51.956;12.980;2023-05-02T01:29:28;7.33;;;5.47;;
29200;SDS011;16244;51.956;12.980;2023-05-02T01:31:57;6.07;;;5.40;;
29200;SDS011;16244;51.956;12.980;2023-05-02T01:34:26;5.67;;;5.27;;
29200;SDS011;16244;51.956;12.980;2023-05-02T01:36:55;6.07;;;5.57;;
29200;SDS011;16244;51.956;12.980;2023-05-02T01:39:25;6.43;;;5.47;;
29200;SDS011;16244;51.956;12.980;2023-05-02T01:41:54;6.53;;;6.03;;
29200;SDS011;16244;51.956;12.980;2023-05-02T01:44:24;8.00;;;6.53;;
29200;SDS011;16244;51.956;12.980;2023-05-02T01:46:55;9.10;;;6.70;;
29200;SDS011;16244;51.956;12.980;2023-05-02T01:49:26;7.20;;;6.20;;
29200;SDS011;16244;51.956;12.980;2023-05-02T01:51:55;7.30;;;6.60;;
29200;SDS011;16244;51.956;12.980;2023-05-02T01:54:25;21.60;;;7.13;;
29200;SDS011;16244;51.956;12.980;2023-05-02T01:56:53;8.77;;;8.00;;
29200;SDS011;16244;51.956;12.980;2023-05-02T01:59:22;8.90;;;7.67;;
29200;SDS011;16244;51.956;12.980;2023-05-02T02:01:51;7.80;;;6.87;;
29200;SDS011;16244;51.956;12.980;2023-05-02T02:04:21;7.60;;;7.00;;
29200;SDS011;16244;51.956;12.980;2023-05-02T02:06:52;11.17;;;7.90;;
29200;SDS011;16244;51.956;12.980;2023-05-02T02:09:24;7.40;;;6.80;;
29200;SDS011;16244;51.956;12.980;2023-05-02T02:11:55;8.50;;;7.70;;
29200;SDS011;16244;51.956;12.980;2023-05-02T02:14:31;12.23;;;6.93;;
29200;SDS011;16244;51.956;12.980;2023-05-02T02:17:01;8.37;;;6.67;;
29200;SDS011;16244;51.956;12.980;2023-05-02T02:19:38;18.30;;;6.93;;
29200;SDS011;16244;51.956;12.980;2023-05-02T02:22:07;6.93;;;6.23;;
29200;SDS011;16244;51.956;12.980;2023-05-02T02:24:35;6.87;;;6.37;;
29200;SDS011;16244;51.956;12.980;2023-05-02T02:27:04;8.43;;;7.13;;
29200;SDS011;16244;51.956;12.980;2023-05-02T02:29:32;7.60;;;6.73;;
29200;SDS011;16244;51.956;12.980;2023-05-02T02:32:00;6.03;;;5.70;;
29200;SDS011;16244;51.956;12.980;2023-05-02T02:34:27;7.00;;;6.40;;
29200;SDS011;16244;51.956;12.980;2023-05-02T02:36:59;7.27;;;6.67;;
29200;SDS011;16244;51.956;12.980;2023-05-02T02:39:37;6.43;;;5.97;;
29200;SDS011;16244;51.956;12.980;2023-05-02T02:42:18;6.47;;;5.83;;
29200;SDS011;16244;51.956;12.980;2023-05-02T02:44:55;6.57;;;6.03;;
29200;SDS011;16244;51.956;12.980;2023-05-02T02:47:28;6.63;;;6.03;;
29200;SDS011;16244;51.956;12.980;2023-05-02T02:50:07;7.37;;;6.67;;
29200;SDS011;16244;51.956;12.980;2023-05-02T02:52:46;6.07;;;5.50;;
29200;SDS011;16244;51.956;12.980;2023-05-02T02:55:19;7.50;;;5.67;;
29200;SDS011;16244;51.956;12.980;2023-05-02T02:57:58;4.40;;;4.10;;
29200;SDS011;16244;51.956;12.980;2023-05-02T03:00:29;7.13;;;5.00;;
29200;SDS011;16244;51.956;12.980;2023-05-02T03:02:59;7.40;;;3.33;;
29200;SDS011;16244;51.956;12.980;2023-05-02T03:05:26;2.80;;;2.70;;
29200;SDS011;16244;51.956;12.980;2023-05-02T03:07:59;2.10;;;2.00;;
29200;SDS011;16244;51.956;12.980;2023-05-02T03:10:27;2.30;;;2.20;;
29200;SDS011;16244;51.956;12.980;2023-05-02T03:12:55;2.90;;;1.93;;
29200;SDS011;16244;51.956;12.980;2023-05-02T03:18:30;6.00;;;2.10;;
29200;SDS011;16244;51.956;12.980;2023-05-02T03:20:58;4.10;;;2.10;;
29200;SDS011;16244;51.956;12.980;2023-05-02T03:23:28;5.00;;;2.30;;
29200;SDS011;16244;51.956;12.980;2023-05-02T03:25:55;4.53;;;2.03;;
29200;SDS011;16244;51.956;12.980;2023-05-02T03:28:23;1.70;;;1.60;;
29200;SDS011;16244;51.956;12.980;2023-05-02T03:30:51;3.70;;;1.80;;
29200;SDS011;16244;51.956;12.980;2023-05-02T03:33:18;2.20;;;1.80;;
29200;SDS011;16244;51.956;12.980;2023-05-02T03:35:46;1.70;;;1.70;;
29200;SDS011;16244;51.956;12.980;2023-05-02T03:38:13;2.23;;;2.00;;
29200;SDS011;16244;51.956;12.980;2023-05-02T03:40:42;2.57;;;1.53;;
29200;SDS011;16244;51.956;12.980;2023-05-02T03:43:10;1.60;;;1.50;;
29200;SDS011;16244;51.956;12.980;2023-05-02T03:45:38;3.00;;;2.63;;
29200;SDS011;16244;51.956;12.980;2023-05-02T03:48:05;3.90;;;2.00;;
29200;SDS011;16244;51.956;12.980;2023-05-02T03:50:32;1.87;;;1.77;;
29200;SDS011;16244;51.956;12.980;2023-05-02T03:53:00;3.50;;;1.90;;
29200;SDS011;16244;51.956;12.980;2023-05-02T03:55:28;2.13;;;2.03;;
29200;SDS011;16244;51.956;12.980;2023-05-02T03:57:57;2.60;;;1.73;;
29200;SDS011;16244;51.956;12.980;2023-05-02T04:00:25;1.87;;;1.77;;
29200;SDS011;16244;51.956;12.980;2023-05-02T04:02:53;1.57;;;1.43;;
29200;SDS011;16244;51.956;12.980;2023-05-02T04:05:20;4.00;;;1.63;;
29200;SDS011;16244;51.956;12.980;2023-05-02T04:07:48;6.37;;;1.87;;
29200;SDS011;16244;51.956;12.980;2023-05-02T04:10:16;1.70;;;1.63;;
29200;SDS011;16244;51.956;12.980;2023-05-02T04:12:43;2.77;;;1.90;;
29200;SDS011;16244;51.956;12.980;2023-05-02T04:15:12;2.27;;;2.20;;
29200;SDS011;16244;51.956;12.980;2023-05-02T04:17:40;2.13;;;1.83;;
29200;SDS011;16244;51.956;12.980;2023-05-02T04:20:08;1.50;;;1.50;;
29200;SDS011;16244;51.956;12.980;2023-05-02T04:22:36;3.13;;;1.40;;
29200;SDS011;16244;51.956;12.980;2023-05-02T04:25:08;6.20;;;2.47;;
29200;SDS011;16244;51.956;12.980;2023-05-02T04:27:45;8.70;;;2.20;;
29200;SDS011;16244;51.956;12.980;2023-05-02T04:30:15;3.53;;;2.30;;
29200;SDS011;16244;51.956;12.980;2023-05-02T04:32:42;10.57;;;7.27;;
29200;SDS011;16244;51.956;12.980;2023-05-02T04:35:10;4.17;;;2.50;;
29200;SDS011;16244;51.956;12.980;2023-05-02T04:37:38;4.03;;;3.00;;
29200;SDS011;16244;51.956;12.980;2023-05-02T04:40:06;9.10;;;4.37;;
29200;SDS011;16244;51.956;12.980;2023-05-02T04:42:34;3.20;;;3.03;;
29200;SDS011;16244;51.956;12.980;2023-05-02T04:45:02;6.90;;;2.63;;
29200;SDS011;16244;51.956;12.980;2023-05-02T04:47:32;2.60;;;2.30;;
29200;SDS011;16244;51.956;12.980;2023-05-02T04:49:59;20.77;;;7.20;;
29200;SDS011;16244;51.956;12.980;2023-05-02T04:52:27;9.23;;;4.00;;
29200;SDS011;16244;51.956;12.980;2023-05-02T04:54:56;3.63;;;3.43;;
29200;SDS011;16244;51.956;12.980;2023-05-02T04:57:23;6.33;;;3.00;;
29200;SDS011;16244;51.956;12.980;2023-05-02T04:59:51;3.40;;;3.30;;
29200;SDS011;16244;51.956;12.980;2023-05-02T05:02:19;4.00;;;3.67;;
29200;SDS011;16244;51.956;12.980;2023-05-02T05:04:48;3.70;;;3.40;;
29200;SDS011;16244;51.956;12.980;2023-05-02T05:07:15;3.07;;;2.97;;
29200;SDS011;16244;51.956;12.980;2023-05-02T05:09:43;3.27;;;3.17;;
29200;SDS011;16244;51.956;12.980;2023-05-02T05:12:11;4.00;;;2.67;;
29200;SDS011;16244;51.956;12.980;2023-05-02T05:14:39;6.73;;;3.10;;
29200;SDS011;16244;51.956;12.980;2023-05-02T05:17:07;4.60;;;4.20;;
29200;SDS011;16244;51.956;12.980;2023-05-02T05:19:35;3.23;;;2.93;;
29200;SDS011;16244;51.956;12.980;2023-05-02T05:22:04;4.30;;;3.20;;
29200;SDS011;16244;51.956;12.980;2023-05-02T05:24:31;7.23;;;3.40;;
29200;SDS011;16244;51.956;12.980;2023-05-02T05:26:59;5.17;;;4.13;;
29200;SDS011;16244;51.956;12.980;2023-05-02T05:29:26;10.87;;;3.67;;
29200;SDS011;16244;51.956;12.980;2023-05-02T05:31:56;5.87;;;2.60;;
29200;SDS011;16244;51.956;12.980;2023-05-02T05:34:24;3.50;;;3.40;;
29200;SDS011;16244;51.956;12.980;2023-05-02T05:36:52;3.83;;;3.37;;
29200;SDS011;16244;51.956;12.980;2023-05-02T05:39:21;3.97;;;3.37;;
29200;SDS011;16244;51.956;12.980;2023-05-02T05:41:50;9.33;;;3.77;;
29200;SDS011;16244;51.956;12.980;2023-05-02T05:44:17;3.30;;;3.10;;
29200;SDS011;16244;51.956;12.980;2023-05-02T05:46:47;3.53;;;3.33;;
29200;SDS011;16244;51.956;12.980;2023-05-02T05:49:14;3.60;;;3.50;;
29200;SDS011;16244;51.956;12.980;2023-05-02T05:51:43;5.17;;;3.70;;
29200;SDS011;16244;51.956;12.980;2023-05-02T05:54:12;3.93;;;3.57;;
29200;SDS011;16244;51.956;12.980;2023-05-02T05:56:41;3.80;;;3.60;;
29200;SDS011;16244;51.956;12.980;2023-05-02T05:59:12;4.77;;;4.17;;
29200;SDS011;16244;51.956;12.980;2023-05-02T06:01:39;5.80;;;3.53;;
29200;SDS011;16244;51.956;12.980;2023-05-02T06:04:07;4.07;;;3.67;;
29200;SDS011;16244;51.956;12.980;2023-05-02T06:06:35;5.33;;;4.30;;
29200;SDS011;16244;51.956;12.980;2023-05-02T06:09:02;4.47;;;4.07;;
29200;SDS011;16244;51.956;12.980;2023-05-02T06:11:30;3.90;;;3.60;;
29200;SDS011;16244;51.956;12.980;2023-05-02T06:13:59;4.67;;;4.27;;
29200;SDS011;16244;51.956;12.980;2023-05-02T06:16:27;4.00;;;3.33;;
29200;SDS011;16244;51.956;12.980;2023-05-02T06:18:54;5.50;;;3.30;;
29200;SDS011;16244;51.956;12.980;2023-05-02T06:21:22;6.90;;;3.60;;
29200;SDS011;16244;51.956;12.980;2023-05-02T06:23:49;3.33;;;3.13;;
29200;SDS011;16244;51.956;12.980;2023-05-02T06:26:17;16.40;;;3.30;;
29200;SDS011;16244;51.956;12.980;2023-05-02T06:28:44;3.90;;;3.60;;
29200;SDS011;16244;51.956;12.980;2023-05-02T06:31:13;4.00;;;3.30;;
29200;SDS011;16244;51.956;12.980;2023-05-02T06:33:41;5.87;;;4.00;;
29200;SDS011;16244;51.956;12.980;2023-05-02T06:36:08;6.50;;;3.93;;
29200;SDS011;16244;51.956;12.980;2023-05-02T06:38:36;5.40;;;5.00;;
29200;SDS011;16244;51.956;12.980;2023-05-02T06:41:04;7.93;;;4.30;;
29200;SDS011;16244;51.956;12.980;2023-05-02T06:43:31;5.27;;;4.87;;
29200;SDS011;16244;51.956;12.980;2023-05-02T06:45:59;4.03;;;3.73;;
29200;SDS011;16244;51.956;12.980;2023-05-02T06:48:28;4.50;;;4.20;;
29200;SDS011;16244;51.956;12.980;2023-05-02T06:50:56;4.70;;;4.30;;
29200;SDS011;16244;51.956;12.980;2023-05-02T06:53:23;3.70;;;3.40;;
29200;SDS011;16244;51.956;12.980;2023-05-02T06:55:51;4.20;;;3.80;;
29200;SDS011;16244;51.956;12.980;2023-05-02T06:58:19;3.57;;;3.37;;
29200;SDS011;16244;51.956;12.980;2023-05-02T07:00:47;4.20;;;3.13;;
29200;SDS011;16244;51.956;12.980;2023-05-02T07:03:15;6.50;;;3.63;;
29200;SDS011;16244;51.956;12.980;2023-05-02T07:05:44;3.90;;;3.60;;
29200;SDS011;16244;51.956;12.980;2023-05-02T07:08:11;3.90;;;3.70;;
29200;SDS011;16244;51.956;12.980;2023-05-02T07:10:39;6.87;;;4.70;;
29200;SDS011;16244;51.956;12.980;2023-05-02T07:13:06;4.30;;;3.90;;
29200;SDS011;16244;51.956;12.980;2023-05-02T07:15:34;4.30;;;3.60;;
29200;SDS011;16244;51.956;12.980;2023-05-02T07:18:02;5.30;;;4.77;;
29200;SDS011;16244;51.956;12.980;2023-05-02T07:20:29;6.37;;;4.00;;
29200;SDS011;16244;51.956;12.980;2023-05-02T07:22:58;6.03;;;4.70;;
29200;SDS011;16244;51.956;12.980;2023-05-02T07:25:26;6.50;;;4.77;;
29200;SDS011;16244;51.956;12.980;2023-05-02T07:27:54;8.00;;;5.43;;
29200;SDS011;16244;51.956;12.980;2023-05-02T07:30:22;8.63;;;6.50;;
29200;SDS011;16244;51.956;12.980;2023-05-02T07:32:50;7.93;;;7.13;;
29200;SDS011;16244;51.956;12.980;2023-05-02T07:35:17;6.90;;;6.30;;
29200;SDS011;16244;51.956;12.980;2023-05-02T07:37:45;7.37;;;6.63;;
29200;SDS011;16244;51.956;12.980;2023-05-02T07:40:14;9.73;;;6.67;;
29200;SDS011;16244;51.956;12.980;2023-05-02T07:42:41;6.33;;;5.90;;
29200;SDS011;16244;51.956;12.980;2023-05-02T07:45:09;7.57;;;6.50;;
29200;SDS011;16244;51.956;12.980;2023-05-02T07:47:37;6.97;;;6.37;;
29200;SDS011;16244;51.956;12.980;2023-05-02T07:50:05;6.33;;;5.80;;
29200;SDS011;16244;51.956;12.980;2023-05-02T07:52:33;7.63;;;5.60;;
29200;SDS011;16244;51.956;12.980;2023-05-02T07:55:01;9.20;;;7.47;;
29200;SDS011;16244;51.956;12.980;2023-05-02T07:57:30;8.40;;;5.70;;
29200;SDS011;16244;51.956;12.980;2023-05-02T07:59:57;5.37;;;5.03;;
29200;SDS011;16244;51.956;12.980;2023-05-02T08:02:25;7.07;;;6.50;;
29200;SDS011;16244;51.956;12.980;2023-05-02T08:04:53;7.23;;;5.83;;
29200;SDS011;16244;51.956;12.980;2023-05-02T08:07:21;5.70;;;4.50;;
29200;SDS011;16244;51.956;12.980;2023-05-02T08:09:49;6.13;;;5.63;;
29200;SDS011;16244;51.956;12.980;2023-05-02T08:12:17;5.17;;;4.63;;
29200;SDS011;16244;51.956;12.980;2023-05-02T08:14:46;4.47;;;4.17;;
29200;SDS011;16244;51.956;12.980;2023-05-02T08:17:13;5.03;;;4.20;;
29200;SDS011;16244;51.956;12.980;2023-05-02T08:19:41;4.90;;;4.50;;
29200;SDS011;16244;51.956;12.980;2023-05-02T08:22:09;5.87;;;4.63;;
29200;SDS011;16244;51.956;12.980;2023-05-02T08:24:37;6.57;;;4.40;;
29200;SDS011;16244;51.956;12.980;2023-05-02T08:27:05;5.30;;;5.03;;
29200;SDS011;16244;51.956;12.980;2023-05-02T08:29:33;4.67;;;4.47;;
29200;SDS011;16244;51.956;12.980;2023-05-02T08:32:03;5.70;;;4.90;;
29200;SDS011;16244;51.956;12.980;2023-05-02T08:34:31;5.57;;;5.07;;
29200;SDS011;16244;51.956;12.980;2023-05-02T08:36:58;6.00;;;5.40;;
29200;SDS011;16244;51.956;12.980;2023-05-02T08:39:31;6.27;;;5.63;;
29200;SDS011;16244;51.956;12.980;2023-05-02T08:41:59;8.10;;;7.40;;
29200;SDS011;16244;51.956;12.980;2023-05-02T08:44:27;10.57;;;7.50;;
29200;SDS011;16244;51.956;12.980;2023-05-02T08:46:55;7.00;;;6.40;;
29200;SDS011;16244;51.956;12.980;2023-05-02T08:49:26;6.97;;;6.30;;
29200;SDS011;16244;51.956;12.980;2023-05-02T08:51:56;8.30;;;7.60;;
29200;SDS011;16244;51.956;12.980;2023-05-02T08:54:27;9.10;;;6.87;;
29200;SDS011;16244;51.956;12.980;2023-05-02T08:56:55;19.63;;;12.20;;
29200;SDS011;16244;51.956;12.980;2023-05-02T08:59:24;8.37;;;7.47;;
29200;SDS011;16244;51.956;12.980;2023-05-02T09:01:54;7.10;;;6.63;;
29200;SDS011;16244;51.956;12.980;2023-05-02T09:04:28;12.40;;;10.57;;
29200;SDS011;16244;51.956;12.980;2023-05-02T09:06:57;13.20;;;8.90;;
29200;SDS011;16244;51.956;12.980;2023-05-02T09:09:25;11.23;;;7.87;;
29200;SDS011;16244;51.956;12.980;2023-05-02T09:11:53;9.10;;;7.20;;
29200;SDS011;16244;51.956;12.980;2023-05-02T09:14:21;8.40;;;7.67;;
29200;SDS011;16244;51.956;12.980;2023-05-02T09:16:56;9.30;;;7.87;;
29200;SDS011;16244;51.956;12.980;2023-05-02T09:19:27;8.23;;;6.93;;
29200;SDS011;16244;51.956;12.980;2023-05-02T09:21:58;9.03;;;8.20;;
29200;SDS011;16244;51.956;12.980;2023-05-02T09:24:27;9.50;;;8.50;;
29200;SDS011;16244;51.956;12.980;2023-05-02T09:26:56;10.37;;;8.83;;
29200;SDS011;16244;51.956;12.980;2023-05-02T09:29:26;9.53;;;8.20;;
29200;SDS011;16244;51.956;12.980;2023-05-02T09:31:55;9.20;;;7.77;;
29200;SDS011;16244;51.956;12.980;2023-05-02T09:34:23;12.27;;;9.40;;
29200;SDS011;16244;51.956;12.980;2023-05-02T09:36:52;10.60;;;9.50;;
29200;SDS011;16244;51.956;12.980;2023-05-02T09:39:20;9.13;;;8.23;;
29200;SDS011;16244;51.956;12.980;2023-05-02T09:41:49;10.40;;;8.77;;
29200;SDS011;16244;51.956;12.980;2023-05-02T09:44:17;8.73;;;7.87;;
29200;SDS011;16244;51.956;12.980;2023-05-02T09:46:46;10.40;;;7.97;;
29200;SDS011;16244;51.956;12.980;2023-05-02T09:49:15;7.90;;;7.20;;
29200;SDS011;16244;51.956;12.980;2023-05-02T09:51:44;9.77;;;7.23;;
29200;SDS011;16244;51.956;12.980;2023-05-02T09:54:14;9.10;;;7.17;;
29200;SDS011;16244;51.956;12.980;2023-05-02T09:57:01;9.57;;;7.57;;
29200;SDS011;16244;51.956;12.980;2023-05-02T09:59:28;8.97;;;7.00;;
29200;SDS011;16244;51.956;12.980;2023-05-02T10:01:56;9.80;;;7.80;;
29200;SDS011;16244;51.956;12.980;2023-05-02T10:04:25;9.03;;;8.17;;
29200;SDS011;16244;51.956;12.980;2023-05-02T10:06:53;9.87;;;8.97;;
29200;SDS011;16244;51.956;12.980;2023-05-02T10:09:22;10.00;;;7.13;;
29200;SDS011;16244;51.956;12.980;2023-05-02T10:11:52;8.73;;;7.90;;
29200;SDS011;16244;51.956;12.980;2023-05-02T10:14:21;12.13;;;8.50;;
29200;SDS011;16244;51.956;12.980;2023-05-02T10:16:52;9.23;;;8.30;;
29200;SDS011;16244;51.956;12.980;2023-05-02T10:19:28;7.67;;;7.03;;
29200;SDS011;16244;51.956;12.980;2023-05-02T10:21:56;7.80;;;7.00;;
29200;SDS011;16244;51.956;12.980;2023-05-02T10:24:27;18.20;;;8.27;;
29200;SDS011;16244;51.956;12.980;2023-05-02T10:26:57;7.63;;;6.90;;
29200;SDS011;16244;51.956;12.980;2023-05-02T10:29:26;8.07;;;7.37;;
29200;SDS011;16244;51.956;12.980;2023-05-02T10:31:56;9.00;;;8.20;;
29200;SDS011;16244;51.956;12.980;2023-05-02T10:34:24;7.63;;;7.03;;
29200;SDS011;16244;51.956;12.980;2023-05-02T10:36:53;9.50;;;8.80;;
29200;SDS011;16244;51.956;12.980;2023-05-02T10:39:21;8.40;;;7.47;;
29200;SDS011;16244;51.956;12.980;2023-05-02T10:41:51;5.50;;;5.00;;
29200;SDS011;16244;51.956;12.980;2023-05-02T10:44:31;4.80;;;4.50;;
29200;SDS011;16244;51.956;12.980;2023-05-02T10:46:59;4.57;;;4.37;;
29200;SDS011;16244;51.956;12.980;2023-05-02T10:49:27;5.50;;;5.10;;
29200;SDS011;16244;51.956;12.980;2023-05-02T10:51:55;5.43;;;4.30;;
29200;SDS011;16244;51.956;12.980;2023-05-02T10:54:22;4.00;;;3.80;;
29200;SDS011;16244;51.956;12.980;2023-05-02T10:57:01;3.47;;;3.37;;
29200;SDS011;16244;51.956;12.980;2023-05-02T10:59:31;3.83;;;3.63;;
29200;SDS011;16244;51.956;12.980;2023-05-02T11:02:00;4.70;;;4.33;;
29200;SDS011;16244;51.956;12.980;2023-05-02T11:07:27;5.30;;;5.00;;
29200;SDS011;16244;51.956;12.980;2023-05-02T11:10:23;21.40;;;16.20;;
29200;SDS011;16244;51.956;12.980;2023-05-02T11:12:53;6.70;;;6.13;;
29200;SDS011;16244;51.956;12.980;2023-05-02T11:21:26;4.60;;;4.40;;
29200;SDS011;16244;51.956;12.980;2023-05-02T11:30:05;5.30;;;4.80;;
29200;SDS011;16244;51.956;12.980;2023-05-02T11:35:42;3.67;;;3.33;;
29200;SDS011;16244;51.956;12.980;2023-05-02T11:38:12;3.03;;;2.83;;
29200;SDS011;16244;51.956;12.980;2023-05-02T11:40:48;2.90;;;2.80;;
29200;SDS011;16244;51.956;12.980;2023-05-02T11:43:20;4.17;;;3.00;;
29200;SDS011;16244;51.956;12.980;2023-05-02T11:45:51;2.80;;;2.70;;
29200;SDS011;16244;51.956;12.980;2023-05-02T11:48:21;3.40;;;3.20;;
29200;SDS011;16244;51.956;12.980;2023-05-02T11:50:52;3.40;;;3.10;;
29200;SDS011;16244;51.956;12.980;2023-05-02T11:53:23;2.70;;;1.73;;
29200;SDS011;16244;51.956;12.980;2023-05-02T11:55:51;2.93;;;2.73;;
29200;SDS011;16244;51.956;12.980;2023-05-02T11:58:21;6.10;;;3.33;;
29200;SDS011;16244;51.956;12.980;2023-05-02T12:00:51;4.47;;;2.50;;
29200;SDS011;16244;51.956;12.980;2023-05-02T12:03:23;4.67;;;3.50;;
29200;SDS011;16244;51.956;12.980;2023-05-02T12:05:53;2.97;;;2.53;;
29200;SDS011;16244;51.956;12.980;2023-05-02T12:08:22;5.70;;;2.90;;
29200;SDS011;16244;51.956;12.980;2023-05-02T12:10:51;6.83;;;3.63;;
29200;SDS011;16244;51.956;12.980;2023-05-02T12:13:21;5.80;;;3.13;;
29200;SDS011;16244;51.956;12.980;2023-05-02T12:15:52;3.07;;;2.87;;
29200;SDS011;16244;51.956;12.980;2023-05-02T12:18:21;5.77;;;3.17;;
29200;SDS011;16244;51.956;12.980;2023-05-02T12:20:50;4.40;;;2.77;;
29200;SDS011;16244;51.956;12.980;2023-05-02T12:23:19;3.97;;;3.03;;
29200;SDS011;16244;51.956;12.980;2023-05-02T12:25:47;9.97;;;3.60;;
29200;SDS011;16244;51.956;12.980;2023-05-02T12:28:16;4.03;;;3.63;;
29200;SDS011;16244;51.956;12.980;2023-05-02T12:30:50;8.57;;;3.20;;
29200;SDS011;16244;51.956;12.980;2023-05-02T12:33:26;8.43;;;2.70;;
29200;SDS011;16244;51.956;12.980;2023-05-02T12:36:04;2.60;;;2.40;;
29200;SDS011;16244;51.956;12.980;2023-05-02T12:38:38;7.97;;;2.60;;
29200;SDS011;16244;51.956;12.980;2023-05-02T12:41:09;4.87;;;3.03;;
29200;SDS011;16244;51.956;12.980;2023-05-02T12:43:49;3.23;;;2.93;;
29200;SDS011;16244;51.956;12.980;2023-05-02T12:46:18;2.80;;;2.20;;
29200;SDS011;16244;51.956;12.980;2023-05-02T12:48:46;4.30;;;3.13;;
29200;SDS011;16244;51.956;12.980;2023-05-02T12:51:27;3.20;;;3.00;;
29200;SDS011;16244;51.956;12.980;2023-05-02T12:53:56;5.60;;;2.37;;
29200;SDS011;16244;51.956;12.980;2023-05-02T12:56:23;5.47;;;3.20;;
29200;SDS011;16244;51.956;12.980;2023-05-02T12:58:57;5.23;;;2.73;;
29200;SDS011;16244;51.956;12.980;2023-05-02T13:01:27;2.73;;;2.30;;
29200;SDS011;16244;51.956;12.980;2023-05-02T13:03:56;2.43;;;2.23;;
29200;SDS011;16244;51.956;12.980;2023-05-02T13:06:23;4.80;;;2.07;;
29200;SDS011;16244;51.956;12.980;2023-05-02T13:08:51;8.70;;;2.07;;
29200;SDS011;16244;51.956;12.980;2023-05-02T13:11:18;2.23;;;2.03;;
29200;SDS011;16244;51.956;12.980;2023-05-02T13:13:46;4.63;;;2.27;;
29200;SDS011;16244;51.956;12.980;2023-05-02T13:16:13;2.97;;;1.87;;
29200;SDS011;16244;51.956;12.980;2023-05-02T13:18:42;6.30;;;2.40;;
29200;SDS011;16244;51.956;12.980;2023-05-02T13:21:10;5.23;;;2.20;;
29200;SDS011;16244;51.956;12.980;2023-05-02T13:23:37;2.00;;;1.73;;
29200;SDS011;16244;51.956;12.980;2023-05-02T13:26:05;7.23;;;2.27;;
29200;SDS011;16244;51.956;12.980;2023-05-02T13:28:33;4.43;;;2.30;;
29200;SDS011;16244;51.956;12.980;2023-05-02T13:31:02;4.13;;;2.80;;
29200;SDS011;16244;51.956;12.980;2023-05-02T13:33:29;5.10;;;2.10;;
29200;SDS011;16244;51.956;12.980;2023-05-02T13:35:59;6.07;;;2.23;;
29200;SDS011;16244;51.956;12.980;2023-05-02T13:38:26;2.30;;;1.80;;
29200;SDS011;16244;51.956;12.980;2023-05-02T13:40:54;8.33;;;2.80;;
29200;SDS011;16244;51.956;12.980;2023-05-02T13:43:22;7.73;;;1.77;;
29200;SDS011;16244;51.956;12.980;2023-05-02T13:45:52;8.00;;;2.13;;
29200;SDS011;16244;51.956;12.980;2023-05-02T13:48:20;7.30;;;2.93;;
29200;SDS011;16244;51.956;12.980;2023-05-02T13:50:47;6.73;;;2.40;;
29200;SDS011;16244;51.956;12.980;2023-05-02T13:53:17;6.73;;;2.57;;
29200;SDS011;16244;51.956;12.980;2023-05-02T13:55:44;7.00;;;2.67;;
29200;SDS011;16244;51.956;12.980;2023-05-02T13:58:12;7.87;;;2.73;;
29200;SDS011;16244;51.956;12.980;2023-05-02T14:00:40;3.70;;;2.10;;
29200;SDS011;16244;51.956;12.980;2023-05-02T14:03:07;5.50;;;2.30;;
29200;SDS011;16244;51.956;12.980;2023-05-02T14:05:36;4.03;;;2.10;;
29200;SDS011;16244;51.956;12.980;2023-05-02T14:08:07;8.60;;;2.40;;
29200;SDS011;16244;51.956;12.980;2023-05-02T14:10:37;7.80;;;2.47;;
29200;SDS011;16244;51.956;12.980;2023-05-02T14:13:04;3.47;;;1.93;;
29200;SDS011;16244;51.956;12.980;2023-05-02T14:15:32;6.30;;;1.93;;
29200;SDS011;16244;51.956;12.980;2023-05-02T14:18:00;5.27;;;2.07;;
29200;SDS011;16244;51.956;12.980;2023-05-02T14:20:27;4.63;;;2.43;;
29200;SDS011;16244;51.956;12.980;2023-05-02T14:22:55;4.23;;;2.07;;
29200;SDS011;16244;51.956;12.980;2023-05-02T14:25:23;7.10;;;1.83;;
29200;SDS011;16244;51.956;12.980;2023-05-02T14:27:52;6.63;;;1.60;;
29200;SDS011;16244;51.956;12.980;2023-05-02T14:30:19;6.17;;;1.37;;
29200;SDS011;16244;51.956;12.980;2023-05-02T14:32:47;6.33;;;1.97;;
29200;SDS011;16244;51.956;12.980;2023-05-02T14:35:15;4.03;;;2.03;;
29200;SDS011;16244;51.956;12.980;2023-05-02T14:37:42;8.43;;;2.13;;
29200;SDS011;16244;51.956;12.980;2023-05-02T14:40:12;8.87;;;1.70;;
29200;SDS011;16244;51.956;12.980;2023-05-02T14:42:40;9.97;;;2.37;;
29200;SDS011;16244;51.956;12.980;2023-05-02T14:45:10;4.43;;;1.80;;
29200;SDS011;16244;51.956;12.980;2023-05-02T14:47:37;8.00;;;1.70;;
29200;SDS011;16244;51.956;12.980;2023-05-02T14:50:05;3.07;;;1.93;;
29200;SDS011;16244;51.956;12.980;2023-05-02T14:52:33;3.97;;;2.27;;
29200;SDS011;16244;51.956;12.980;2023-05-02T14:55:01;5.67;;;2.13;;
29200;SDS011;16244;51.956;12.980;2023-05-02T14:57:29;9.00;;;1.67;;
29200;SDS011;16244;51.956;12.980;2023-05-02T14:59:56;5.00;;;1.80;;
29200;SDS011;16244;51.956;12.980;2023-05-02T15:02:25;10.93;;;1.70;;
29200;SDS011;16244;51.956;12.980;2023-05-02T15:04:53;8.17;;;2.07;;
29200;SDS011;16244;51.956;12.980;2023-05-02T15:07:20;14.00;;;1.77;;